Tiempo atmosférico en la estación meteorológica de Arenys De Mar, Barcelona (50 m.)



Fecha
DESCASC
Temp. máxima en grados centígrados (hora)
DESCASC
Temp. mínima en grados centígrados (hora)
DESCASC
Temp. media en grados centígrados
DESCASC
Racha de viento máxima en m/sg (hora)
DESCASC
Velocidad máxima media en intervalos de 10 minutos(hora)
DESCASC
Precipitaciones diarias en mm
DESCASC
Precipitaciones de 00:00 a 06:00 en mm
DESCASC
Precipitaciones de 06:00 a 12:00 en mm
DESCASC
Precipitaciones de 12:00 a 18:00 en mm
DESCASC
Precipitaciones de 18:00 a 24:00 en mm
DESCASC
22-11-2020 16.3 (11:30) 4.8 (05:50) 10.5 4.17 (02:50) 1.94 (02:50) 0 0 0 0 0
21-11-2020 15.7 (13:10) 6.6 (07:10) 11.1 6.11 (12:10) 2.78 (12:20) 0 0 0 0 0
20-11-2020 16.4 (13:40) 8.6 (19:40) 12.5 6.11 (01:40) 3.06 (02:00) 0 0 0 0 0
19-11-2020 21.7 (13:20) 10.4 (00:00) 16.1 5.28 (11:40) 2.22 (23:40) 0 0 0 0 0
18-11-2020 19.2 (12:30) 10.6 (00:00) 14.9 3.33 (21:20) 1.67 (19:30) 0 0 0 0 0
17-11-2020 19.5 (11:30) 10.6 (00:00) 15.1 4.17 (06:00) 2.22 (05:30) 0 0 0 0 0
16-11-2020 18.3 (01:20) 13.8 (00:00) 16 4.17 (04:50) 1.67 (12:10) 0 0 0 0 0
15-11-2020 20.7 (11:10) 12.1 (00:00) 16.4 9.17 (15:10) 4.17 (13:50) 0 0 0 0 0
14-11-2020 21.3 (12:10) 12.3 (00:00) 16.8 3.61 (13:40) 1.67 (13:50) 0 0 0 0 0
13-11-2020 20.8 (13:40) 10.6 (00:00) 15.7 3.61 (14:00) 1.94 (23:40) 0 0 0 0 0
12-11-2020 19.6 (11:30) 10.4 (00:00) 15 5 (03:50) 2.22 (04:00) 0 0 0 0 0
11-11-2020 21 (11:50) 10.2 (00:00) 15.6 8.06 (15:00) 3.33 (15:50) 0 0 0 0 0
10-11-2020 21.5 (12:50) 11.2 (00:00) 16.3 3.89 (00:50) 2.22 (02:00) 0 0 0 0 0
09-11-2020 21.4 (13:20) 10.5 (00:00) 15.9 5 (14:30) 2.5 (23:50) 0 0 0 0 0
08-11-2020 21.8 (11:40) 10.9 (00:00) 16.3 5 (13:30) 2.5 (13:40) 0.1 0.1 0 0 0
07-11-2020 19 (16:10) 13.5 (00:00) 16.3 8.33 (12:10) 4.17 (12:10) 5.9 0 0.7 5.2 0
06-11-2020 19.4 (13:50) 15.4 (00:00) 17.4 7.5 (01:10) 3.61 (01:10) 0 0 0 0 0
05-11-2020 19.3 (13:10) 10.5 (00:00) 14.9 8.06 (10:00) 3.61 (03:40) 0 0 0 0 0
04-11-2020 16.9 (13:20) 11 (00:00) 13.9 9.72 (20:40) 3.89 (22:00) 0.9 0.8 0.1 0 0
03-11-2020 19.2 (12:30) 13.3 (00:00) 16.3 3.61 (23:30) 1.67 (23:30) 0 0 0 0 0
02-11-2020 22 (12:10) 11.6 (00:00) 16.8 6.67 (12:50) 3.33 (14:30) 0 0 0 0 0
01-11-2020 21.7 (11:30) 11.8 (00:00) 16.8 4.72 (13:20) 2.22 (13:20) 0 0 0 0 0
31-10-2020 23 (12:00) 10.7 (00:00) 16.8 9.17 (15:20) 4.17 (15:40) 0 0 0 0 0
30-10-2020 21.7 (11:00) 10.9 (00:00) 16.3 3.33 (16:30) 1.67 (16:40) 0 0 0 0 0
29-10-2020 21.1 (13:20) 12 (00:00) 16.6 5.56 (14:30) 3.06 (15:50) 0 0 0 0 0
28-10-2020 21.1 (11:00) 10.9 (00:00) 16 4.44 (04:10) 2.22 (04:00) 0 0 0 0 0

Gráficas

Temp. máximas Temp. mínimas Temp. medias Precipitaciones Rachas de viento máximas Velocidades máximas media en intervalos de 10 minutos

Datos horarios

Fecha y hora oficial Temperatura (ºC) Velocidad del viento (km/h) Dirección del viento Racha (km/h) Dirección de racha Precipitación (mm) Presión (hPa) Tendencia (hPa) Humedad (%)
2020-11-26 23:00:00 15.1 4 Nordeste 15 Norte 0 -- -- 80
2020-11-26 22:00:00 15.4 6 Norte 14 Nordeste 0 -- -- 79
2020-11-26 21:00:00 15.3 3 Nordeste 14 Nordeste 0 -- -- 81
2020-11-26 20:00:00 15.6 2 Norte 11 Nordeste 0 -- -- 82
2020-11-26 19:00:00 15.5 3 Nordeste 12 Nordeste 0 -- -- 83
2020-11-26 18:00:00 15.6 4 Nordeste 13 Nordeste 0 -- -- 83
2020-11-26 17:00:00 15.9 3 Nordeste 9 Nordeste 0 -- -- 81
2020-11-26 16:00:00 16.6 0 Calma 8 Sudeste 0 -- -- 76
2020-11-26 15:00:00 17.2 0 Calma 12 Nordeste 0 -- -- 71
2020-11-26 14:00:00 18.2 0 Calma 10 Este 0 -- -- 68
2020-11-26 13:00:00 17.6 2 Sudeste 11 Sudeste 0 -- -- 75
2020-11-26 12:00:00 18 2 Sudeste 8 Sudeste 0 -- -- 79
2020-11-26 11:00:00 16.5 0 Calma 6 Norte 0 -- -- 90
2020-11-26 10:00:00 14.9 2 Nordeste 10 Norte 0 -- -- 91
2020-11-26 09:00:00 14.3 4 Norte 8 Norte 0 -- -- 91
2020-11-26 08:00:00 14.2 4 Noroeste 12 Sudoeste 0.2 -- -- 91
2020-11-26 07:00:00 13.4 4 Norte 11 Norte 0 -- -- 91
2020-11-26 06:00:00 13 5 Norte 10 Norte 0 -- -- 91
2020-11-26 05:00:00 13.8 2 Norte 9 Norte 0.3 -- -- 91
2020-11-26 04:00:00 13.3 4 Norte 12 Norte 1.3 -- -- 91
2020-11-26 03:00:00 13.2 5 Norte 15 Norte 2.5 -- -- 91
2020-11-26 02:00:00 12.9 6 Norte 14 Norte 0.1 -- -- 91
2020-11-26 01:00:00 13.2 8 Norte 15 Noroeste 0.4 -- -- 91
2020-11-26 00:00:00 13.5 0 Calma 11 Sudoeste 1 -- -- 91
2020-11-25 23:00:00 13.8 0 Calma 8 Noroeste 2.8 -- -- 89
2020-11-25 22:00:00 12.7 0 Calma 13 Norte 0 -- -- 83
2020-11-25 21:00:00 12.3 5 Norte 9 Norte 0 -- -- 83
2020-11-25 20:00:00 13.5 5 Norte 11 Norte 0 -- -- 79
2020-11-25 19:00:00 13.7 3 Norte 8 Norte 0 -- -- 80
2020-11-25 18:00:00 14.4 0 Calma 4 Norte 0 -- -- 78
2020-11-25 17:00:00 15.4 0 Calma 5 Este 0 -- -- 74
2020-11-25 16:00:00 16.4 3 Sur 14 Sur 0 -- -- 64
2020-11-25 15:00:00 17.4 6 Sur 19 Sudoeste 0 -- -- 57
2020-11-25 14:00:00 17.2 6 Sur 13 Sudoeste 0 -- -- 55
2020-11-25 13:00:00 18.9 2 Sudeste 8 Nordeste 0 -- -- 56
2020-11-25 12:00:00 16.9 2 Sudeste 8 Sudeste 0 -- -- 60
2020-11-25 11:00:00 18.2 0 Calma 7 Sur 0 -- -- 58
2020-11-25 10:00:00 14.8 0 Calma 5 Noroeste 0 -- -- 78
2020-11-25 09:00:00 12.9 0 Calma 4 Norte 0 -- -- 84
2020-11-25 08:00:00 12.4 0 Calma 6 Norte 0 -- -- 84
2020-11-25 07:00:00 11.9 4 Norte 7 Norte 0 -- -- 86
2020-11-25 06:00:00 11.9 3 Norte 7 Norte 0 -- -- 86
2020-11-25 05:00:00 12 0 Calma 8 Norte 0 -- -- 84
2020-11-25 04:00:00 10.4 3 Norte 6 Sudoeste 0 -- -- 88
2020-11-25 03:00:00 11.3 2 Oeste 5 Norte 0 -- -- 85
2020-11-25 02:00:00 11.6 3 Norte 6 Norte 0 -- -- 84
2020-11-25 01:00:00 12.5 0 Calma 9 Sudoeste 0 -- -- 77
2020-11-25 00:00:00 12.3 7 Sudoeste 23 Sudoeste 0 -- -- 77
2020-11-24 23:00:00 11.7 6 Sudoeste 12 Sudoeste 0 -- -- 79
2020-11-24 22:00:00 11.1 2 Noroeste 9 Sudoeste 0 -- -- 82
2020-11-24 21:00:00 11.2 3 Noroeste 9 Sudoeste 0 -- -- 78
2020-11-24 20:00:00 12.6 4 Sudoeste 9 Sudoeste 0 -- -- 73
2020-11-24 19:00:00 12.1 2 Sudoeste 6 Oeste 0 -- -- 78
2020-11-24 18:00:00 13.4 2 Oeste 17 Sudoeste 0 -- -- 72
2020-11-24 17:00:00 15.4 6 Sudoeste 18 Sudoeste 0 -- -- 65
2020-11-24 16:00:00 15.2 6 Sudoeste 21 Sudoeste 0 -- -- 64
2020-11-24 15:00:00 15.9 8 Sudoeste 21 Sur 0 -- -- 57
2020-11-24 14:00:00 15.7 9 Sur 26 Sudoeste 0 -- -- 53
2020-11-24 13:00:00 17.3 8 Sur 22 Sur 0 -- -- 47
2020-11-24 12:00:00 17.2 6 Sur 21 Sudoeste 0 -- -- 47
2020-11-24 11:00:00 16.4 6 Sudoeste 19 Oeste 0 -- -- 49
2020-11-24 10:00:00 13.6 0 Calma 9 Sudoeste 0 -- -- 64
2020-11-24 09:00:00 9.3 3 Norte 9 Norte 0 -- -- 78
2020-11-24 08:00:00 6.8 4 Norte 7 Nordeste 0 -- -- 86
2020-11-24 07:00:00 6.9 4 Norte 10 Norte 0 -- -- 86
2020-11-24 06:00:00 7 3 Norte 6 Norte 0 -- -- 87
2020-11-24 05:00:00 7 4 Norte 9 Nordeste 0 -- -- 87
2020-11-24 04:00:00 7.2 3 Norte 10 Norte 0 -- -- 86
2020-11-24 03:00:00 8.2 4 Norte 9 Norte 0 -- -- 85
2020-11-24 02:00:00 8.1 3 Norte 9 Norte 0 -- -- 85
2020-11-24 01:00:00 8.7 4 Norte 8 Norte 0 -- -- 84
2020-11-24 00:00:00 10.3 5 Norte 15 Sudoeste 0 -- -- 78
2020-11-23 23:00:00 11.3 6 Sudoeste 19 Sudoeste 0 -- -- 67
2020-11-23 22:00:00 12.6 5 Oeste 16 Sudoeste 0 -- -- 64
2020-11-23 21:00:00 12.7 5 Noroeste 15 Norte 0 -- -- 69
2020-11-23 20:00:00 9.7 4 Norte 12 Norte 0 -- -- 84
2020-11-23 19:00:00 10.5 5 Norte 8 Norte 0 -- -- 83
2020-11-23 18:00:00 11.2 2 Norte 5 Norte 0 -- -- 80
2020-11-23 17:00:00 14.2 4 Sudoeste 15 Sur 0 -- -- 64
2020-11-23 16:00:00 15.1 7 Sudoeste 14 Sudoeste 0 -- -- 57
2020-11-23 15:00:00 15.2 4 Sur 9 Sur 0 -- -- 51
2020-11-23 14:00:00 14.8 3 Este 15 Sur 0 -- -- 54
2020-11-23 13:00:00 16.5 5 Sur 13 Sudeste 0 -- -- 47
2020-11-23 12:00:00 16 0 Calma 9 Nordeste 0 -- -- 44
2020-11-23 11:00:00 16.3 2 Sur 9 Este 0 -- -- 48
2020-11-23 10:00:00 13.1 0 Calma 6 Norte 0 -- -- 72
2020-11-23 09:00:00 9.2 2 Norte 7 Nordeste 0 -- -- 88
2020-11-23 08:00:00 7.4 3 Norte 7 Norte 0 -- -- 91
2020-11-23 07:00:00 7.4 3 Norte 8 Norte 0 -- -- 91
2020-11-23 06:00:00 7.3 0 Calma 7 Nordeste 0 -- -- 91
2020-11-23 05:00:00 7.9 4 Norte 11 Norte 0 -- -- 88
2020-11-23 04:00:00 8.7 4 Norte 12 Norte 0 -- -- 87
2020-11-23 03:00:00 8.9 5 Norte 10 Nordeste 0 -- -- 86
2020-11-23 02:00:00 9.5 4 Norte 10 Norte 0 -- -- 85
2020-11-23 01:00:00 9.5 5 Norte 10 Norte 0 -- -- 84
2020-11-23 00:00:00 9.5 5 Norte 10 Norte 0 -- -- 83
2020-11-22 23:00:00 8.8 4 Norte 12 Norte 0 -- -- 85
2020-11-22 22:00:00 8.4 6 Norte 10 Norte 0 -- -- 86
2020-11-22 21:00:00 8 4 Noroeste 12 Norte 0 -- -- 87
2020-11-22 20:00:00 8 6 Norte 10 Norte 0 -- -- 85
2020-11-22 19:00:00 8.3 5 Noroeste 9 Norte 0 -- -- 83
2020-11-22 18:00:00 9.2 4 Norte 8 Norte 0 -- -- 81
2020-11-22 17:00:00 10.7 0 Calma 8 Sudeste 0 -- -- 70
2020-11-22 16:00:00 13 2 Sur 10 Sudeste 0 -- -- 61
2020-11-22 15:00:00 13 4 Sur 12 Nordeste 0 -- -- 59
2020-11-22 14:00:00 14 3 Sudeste 12 Sudeste 0 -- -- 52
2020-11-22 13:00:00 16.2 3 Sudeste 11 Sudeste 0 -- -- 46
2020-11-22 12:00:00 15 3 Este 12 Nordeste 0 -- -- 44
2020-11-22 11:00:00 15 2 Este 9 Sudeste 0 -- -- 47
2020-11-22 10:00:00 12.2 0 Calma 9 Norte 0 -- -- 59
2020-11-22 09:00:00 9 4 Norte 11 Norte 0 -- -- 65
2020-11-22 08:00:00 5.9 5 Noroeste 12 Noroeste 0 -- -- 68
2020-11-22 07:00:00 5.7 5 Norte 14 Norte 0 -- -- 65
2020-11-22 06:00:00 5.1 6 Norte 10 Norte 0 -- -- 66
2020-11-22 05:00:00 6.1 4 Noroeste 12 Norte 0 -- -- 60
2020-11-22 04:00:00 6.2 5 Noroeste 14 Nordeste 0 -- -- 63
2020-11-22 03:00:00 6.5 6 Norte 15 Nordeste 0 -- -- 63
2020-11-22 02:00:00 6.7 5 Norte 12 Norte 0 -- -- 63
2020-11-22 01:00:00 6 3 Noroeste 11 Noroeste 0 -- -- 61
2020-11-22 00:00:00 8.1 7 Norte 15 Norte 0 -- -- 47
2020-11-21 23:00:00 7.3 5 Norte 10 Nordeste 0 -- -- 51
2020-11-21 22:00:00 7 6 Norte 11 Norte 0 -- -- 51
2020-11-21 21:00:00 7.2 5 Norte 10 Norte 0 -- -- 51
2020-11-21 20:00:00 7.6 4 Norte 12 Norte 0 -- -- 51
2020-11-21 19:00:00 8.1 5 Norte 12 Norte 0 -- -- 51
2020-11-21 18:00:00 9.1 7 Norte 12 Nordeste 0 -- -- 48
2020-11-21 17:00:00 11.1 3 Noroeste 8 Sudeste 0 -- -- 36
2020-11-21 16:00:00 14.3 2 Este 14 Este 0 -- -- 25
2020-11-21 15:00:00 14.5 0 Calma 16 Norte 0 -- -- 22
2020-11-21 14:00:00 14.8 8 Norte 20 Norte 0 -- -- 19
2020-11-21 13:00:00 15.3 6 Norte 22 Norte 0 -- -- 20
2020-11-21 12:00:00 14.3 5 Nordeste 19 Norte 0 -- -- 22
2020-11-21 11:00:00 14.4 3 Norte 16 Nordeste 0 -- -- 25
2020-11-21 10:00:00 11.4 0 Calma 8 Este 0 -- -- 69
2020-11-21 09:00:00 9.7 2 Norte 12 Norte 0 -- -- 85
2020-11-21 08:00:00 7.4 5 Norte 12 Norte 0 -- -- 88
2020-11-21 07:00:00 7 3 Norte 11 Norte 0 -- -- 88
2020-11-21 06:00:00 7.1 6 Norte 12 Norte 0 -- -- 88
2020-11-21 05:00:00 7.6 4 Norte 10 Norte 0 -- -- 88
2020-11-21 04:00:00 7.9 3 Norte 10 Norte 0 -- -- 88
2020-11-21 03:00:00 8.2 4 Norte 11 Norte 0 -- -- 89
2020-11-21 02:00:00 8.5 4 Norte 12 Norte 0 -- -- 88
2020-11-21 01:00:00 9.2 6 Norte 14 Norte 0 -- -- 83
2020-11-21 00:00:00 9.9 8 Norte 15 Norte 0 -- -- 75
2020-11-20 23:00:00 9.7 7 Norte 14 Norte 0 -- -- 83
2020-11-20 22:00:00 9.5 5 Norte 12 Norte 0 -- -- 79
2020-11-20 21:00:00 9.5 6 Norte 14 Norte 0 -- -- 73
2020-11-20 20:00:00 8.9 6 Norte 13 Norte 0 -- -- 69
2020-11-20 19:00:00 9 3 Noroeste 10 Norte 0 -- -- 66
2020-11-20 18:00:00 10.2 4 Norte 10 Norte 0 -- -- 64
2020-11-20 17:00:00 12.2 0 Calma 8 Sur 0 -- -- 58
2020-11-20 16:00:00 15.1 0 Calma 8 Sur 0 -- -- 48
2020-11-20 15:00:00 15.6 3 Sur 13 Sudoeste 0 -- -- 46
2020-11-20 14:00:00 15.9 6 Sudoeste 12 Sudoeste 0 -- -- 46
2020-11-20 13:00:00 15.4 0 Calma 10 Sudeste 0 -- -- 56
2020-11-20 12:00:00 16 0 Calma 8 Nordeste 0 -- -- 53
2020-11-20 11:00:00 14.3 2 Nordeste 11 Nordeste 0 -- -- 52
2020-11-20 10:00:00 11.7 5 Norte 12 Norte 0 -- -- 55
2020-11-20 09:00:00 10.5 5 Norte 14 Oeste 0 -- -- 72
2020-11-20 08:00:00 10 6 Norte 16 Norte 0 -- -- 76
2020-11-20 07:00:00 9.7 5 Norte 14 Norte 0 -- -- 79
2020-11-20 06:00:00 10.2 3 Oeste 10 Nordeste 0 -- -- 81
2020-11-20 05:00:00 10.5 4 Norte 14 Norte 0 -- -- 77
2020-11-20 04:00:00 11.7 6 Norte 16 Norte 0 -- -- 72
2020-11-20 03:00:00 13.2 3 Nordeste 17 Sudoeste 0 -- -- 66
2020-11-20 02:00:00 14.1 11 Sudoeste 22 Sudoeste 0 -- -- 63
2020-11-20 01:00:00 13.4 7 Norte 17 Noroeste 0 -- -- 61
2020-11-20 00:00:00 13.3 6 Norte 17 Norte 0 -- -- 62
2020-11-19 23:00:00 13.3 5 Norte 17 Norte 0 -- -- 74
2020-11-19 22:00:00 13 6 Norte 14 Norte 0 -- -- 81
2020-11-19 21:00:00 13.9 5 Norte 10 Norte 0 -- -- 80
2020-11-19 20:00:00 14.5 4 Norte 9 Norte 0 -- -- 83
2020-11-19 19:00:00 14.1 0 Calma 6 Noroeste 0 -- -- 81
2020-11-19 18:00:00 15.4 0 Calma 10 Este 0 -- -- 78
2020-11-19 17:00:00 16.9 0 Calma 14 Sudoeste 0 -- -- 72
2020-11-19 16:00:00 18.6 4 Sur 14 Sudoeste 0 -- -- 59
2020-11-19 15:00:00 19.7 4 Sur 15 Sur 0 -- -- 48
2020-11-19 14:00:00 20.5 3 Sur 10 Sur 0 -- -- 45
2020-11-19 13:00:00 20.3 4 Sur 11 Sur 0 -- -- 49
2020-11-19 12:00:00 20.1 4 Sudeste 19 Sudoeste 0 -- -- 51
2020-11-19 11:00:00 19.8 0 Calma 5 Sur 0 -- -- 58
2020-11-19 10:00:00 17.3 0 Calma 3 Norte 0 -- -- 74
2020-11-19 09:00:00 12.5 3 Norte 7 Norte 0 -- -- 90
2020-11-19 08:00:00 10.9 0 Calma 6 Noroeste 0 -- -- 90
2020-11-19 07:00:00 10.8 0 Calma 7 Norte 0 -- -- 90
2020-11-19 06:00:00 10.8 3 Norte 10 Oeste 0 -- -- 90
2020-11-19 05:00:00 11.3 3 Noroeste 7 Norte 0 -- -- 90
2020-11-19 04:00:00 11.2 2 Norte 7 Norte 0 -- -- 90
2020-11-19 03:00:00 11.5 4 Norte 9 Norte 0 -- -- 90
2020-11-19 02:00:00 11.7 3 Norte 8 Norte 0 -- -- 90
2020-11-19 01:00:00 11.9 4 Norte 8 Norte 0 -- -- 90
2020-11-19 00:00:00 12.1 4 Norte 8 Norte 0 -- -- 90
2020-11-18 23:00:00 12.3 3 Norte 11 Nordeste 0 -- -- 89
2020-11-18 22:00:00 12.4 3 Norte 12 Norte 0 -- -- 88
2020-11-18 21:00:00 12.7 6 Norte 10 Norte 0 -- -- 88
2020-11-18 20:00:00 12.6 5 Norte 12 Norte 0 -- -- 87
2020-11-18 19:00:00 12.9 3 Noroeste 8 Norte 0 -- -- 87
2020-11-18 18:00:00 13.9 0 Calma 5 Norte 0 -- -- 84
2020-11-18 17:00:00 15.7 2 Sur 6 Sur 0 -- -- 75
2020-11-18 16:00:00 16.7 3 Sur 8 Nordeste 0 -- -- 70
2020-11-18 15:00:00 16.6 2 Sudeste 11 Nordeste 0 -- -- 69
2020-11-18 14:00:00 17.1 3 Este 12 Nordeste 0 -- -- 64
2020-11-18 13:00:00 18.1 4 Este 12 Nordeste 0 -- -- 62
2020-11-18 12:00:00 17.7 3 Sudeste 9 Sur 0 -- -- 66
2020-11-18 11:00:00 18.6 4 Sudeste 11 Sudeste 0 -- -- 60
2020-11-18 10:00:00 17.7 0 Calma 6 Norte 0 -- -- 66
2020-11-18 09:00:00 13 0 Calma 8 Norte 0 -- -- 89
2020-11-18 08:00:00 10.9 4 Nordeste 9 Oeste 0 -- -- 90
2020-11-18 07:00:00 11.1 4 Norte 8 Norte 0 -- -- 90
2020-11-18 06:00:00 11.5 4 Norte 9 Norte 0 -- -- 90
2020-11-18 05:00:00 11.5 5 Norte 8 Norte 0 -- -- 90
2020-11-18 04:00:00 11.2 4 Norte 9 Norte 0 -- -- 90
2020-11-18 03:00:00 11.1 2 Norte 7 Sudoeste 0 -- -- 90
2020-11-18 02:00:00 12.3 0 Calma 7 Norte 0 -- -- 90
2020-11-18 01:00:00 12.3 0 Calma 6 Norte 0 -- -- 90
2020-11-18 00:00:00 12.3 2 Norte 10 Norte 0 -- -- 90
2020-11-17 23:00:00 12.2 3 Norte 8 Norte 0 -- -- 90
2020-11-17 22:00:00 12 3 Noroeste 10 Noroeste 0 -- -- 89
2020-11-17 21:00:00 12.5 3 Noroeste 11 Norte 0 -- -- 88
2020-11-17 20:00:00 12.2 3 Norte 8 Norte 0 -- -- 88
2020-11-17 19:00:00 12.5 3 Norte 6 Nordeste 0 -- -- 87
2020-11-17 18:00:00 13.4 0 Calma 4 Sudeste 0 -- -- 83
2020-11-17 17:00:00 15.3 0 Calma 8 Sur 0 -- -- 70
2020-11-17 16:00:00 16.4 4 Sur 13 Sur 0 -- -- 67
2020-11-17 15:00:00 16.6 4 Sur 11 Sur 0 -- -- 65
2020-11-17 14:00:00 17.6 5 Sur 12 Sur 0 -- -- 58
2020-11-17 13:00:00 19.1 3 Sur 13 Nordeste 0 -- -- 50
2020-11-17 12:00:00 19.3 3 Sudeste 10 Sur 0 -- -- 51
2020-11-17 11:00:00 18.5 0 Calma 6 Este 0 -- -- 54
2020-11-17 10:00:00 15.9 0 Calma 5 Sudeste 0 -- -- 64
2020-11-17 09:00:00 13.8 3 Norte 9 Oeste 0 -- -- 83
2020-11-17 08:00:00 10.7 5 Norte 10 Nordeste 0 -- -- 88
2020-11-17 07:00:00 10.9 6 Norte 13 Norte 0 -- -- 88
2020-11-17 06:00:00 11.1 7 Norte 15 Norte 0 -- -- 88
2020-11-17 05:00:00 11.5 4 Norte 12 Norte 0 -- -- 89
2020-11-17 04:00:00 12.2 6 Norte 12 Norte 0 -- -- 90
2020-11-17 03:00:00 13 0 Calma 14 Sudoeste 0 -- -- 87
2020-11-17 02:00:00 14.3 4 Oeste 11 Oeste 0 -- -- 85
2020-11-17 01:00:00 12.8 0 Calma 6 Sudoeste 0 -- -- 87
2020-11-17 00:00:00 14.4 2 Sudoeste 5 Sudoeste 0 -- -- 78
2020-11-16 23:00:00 14.8 0 Calma 5 Sudoeste 0 -- -- 82
2020-11-16 22:00:00 15.1 0 Calma 5 Sudoeste 0 -- -- 83
2020-11-16 21:00:00 15.1 3 Noroeste 8 Oeste 0 -- -- 82
2020-11-16 20:00:00 14.7 0 Calma 8 Norte 0 -- -- 83
2020-11-16 19:00:00 15.1 4 Norte 7 Norte 0 -- -- 80
2020-11-16 18:00:00 15.5 0 Calma 5 Nordeste 0 -- -- 79
2020-11-16 17:00:00 16 0 Calma 6 Norte 0 -- -- 74
2020-11-16 16:00:00 16.3 2 Norte 7 Norte 0 -- -- 69
2020-11-16 15:00:00 16.2 2 Oeste 8 Sur 0 -- -- 64
2020-11-16 14:00:00 16.3 3 Sur 9 Sur 0 -- -- 65
2020-11-16 13:00:00 17.6 0 Calma 10 Noroeste 0 -- -- 68
2020-11-16 12:00:00 15.2 5 Norte 10 Norte 0 -- -- 77
2020-11-16 11:00:00 15.5 4 Sur 6 Sur 0 -- -- 79
2020-11-16 10:00:00 16 0 Calma 3 Sur 0 -- -- 78
2020-11-16 09:00:00 15.5 0 Calma 5 Nordeste 0 -- -- 78
2020-11-16 08:00:00 15.3 0 Calma 5 Sur 0 -- -- 76
2020-11-16 07:00:00 15.2 2 Norte 6 Oeste 0 -- -- 74
2020-11-16 06:00:00 15.1 2 Norte 10 Nordeste 0 -- -- 74
2020-11-16 05:00:00 14.2 3 Nordeste 15 Norte 0 -- -- 78
2020-11-16 04:00:00 14.3 0 Calma 8 Norte 0 -- -- 79
2020-11-16 03:00:00 14.9 0 Calma 8 Norte 0 -- -- 75
2020-11-16 02:00:00 16 0 Calma 11 Nordeste 0 -- -- 67
2020-11-16 01:00:00 17.5 4 Oeste 11 Oeste 0 -- -- 58
2020-11-16 00:00:00 15.9 0 Calma 9 Sur 0 -- -- 66
2020-11-15 23:00:00 18.4 2 Sudoeste 21 Oeste 0 -- -- 51
2020-11-15 22:00:00 18.3 8 Oeste 18 Oeste 0 -- -- 55
2020-11-15 21:00:00 17 4 Noroeste 11 Noroeste 0 -- -- 63
2020-11-15 20:00:00 16.7 5 Oeste 12 Sudoeste 0 -- -- 66
2020-11-15 19:00:00 15.7 0 Calma 6 Sudoeste 0 -- -- 83
2020-11-15 18:00:00 16.8 5 Sur 20 Sudoeste 0 -- -- 80
2020-11-15 17:00:00 17.9 6 Sudoeste 28 Sudoeste 0 -- -- 72
2020-11-15 16:00:00 18.5 10 Sudoeste 33 Sudoeste 0 -- -- 69
2020-11-15 15:00:00 18.9 13 Sudoeste 31 Sudoeste 0 -- -- 64
2020-11-15 14:00:00 18.7 12 Sur 30 Sur 0 -- -- 68
2020-11-15 13:00:00 20.1 10 Sudoeste 26 Sudoeste 0 -- -- 56
2020-11-15 12:00:00 20.2 9 Sudoeste 22 Sudoeste 0 -- -- 51
2020-11-15 11:00:00 20.1 8 Sudoeste 21 Sudoeste 0 -- -- 49
2020-11-15 10:00:00 18.7 5 Sur 22 Sudoeste 0 -- -- 51
2020-11-15 09:00:00 16.9 5 Sudoeste 17 Sudoeste 0 -- -- 59
2020-11-15 08:00:00 14.8 6 Oeste 13 Oeste 0 -- -- 70
2020-11-15 07:00:00 14.1 3 Oeste 11 Sudoeste 0 -- -- 74
2020-11-15 06:00:00 14.9 6 Oeste 16 Oeste 0 -- -- 73
2020-11-15 05:00:00 12.2 0 Calma 6 Sudoeste 0 -- -- 89
2020-11-15 04:00:00 12.5 0 Calma 5 Sudoeste 0 -- -- 89
2020-11-15 03:00:00 13.2 0 Calma 9 Sudoeste 0 -- -- 87
2020-11-15 02:00:00 15.3 5 Sudoeste 12 Sudoeste 0 -- -- 79
2020-11-15 01:00:00 15.1 5 Sudoeste 8 Sudoeste 0 -- -- 86
2020-11-15 00:00:00 14.7 5 Sudoeste 8 Sudoeste 0 -- -- 90
2020-11-14 23:00:00 13.9 0 Calma 4 Norte 0 -- -- 90
2020-11-14 22:00:00 14.9 0 Calma 7 Oeste 0 -- -- 88
2020-11-14 21:00:00 15.6 3 Oeste 7 Oeste 0 -- -- 87
2020-11-14 20:00:00 13.8 0 Calma 6 Norte 0 -- -- 88
2020-11-14 19:00:00 14.1 2 Norte 7 Norte 0 -- -- 88
2020-11-14 18:00:00 14.5 0 Calma 3 Norte 0 -- -- 87
2020-11-14 17:00:00 16.2 0 Calma 8 Sur 0 -- -- 80
2020-11-14 16:00:00 17.6 3 Sur 12 Sur 0 -- -- 73
2020-11-14 15:00:00 18.4 3 Sur 12 Sur 0 -- -- 65
2020-11-14 14:00:00 18.6 4 Sur 13 Sur 0 -- -- 61
2020-11-14 13:00:00 20.1 5 Sur 12 Sur 0 -- -- 56
2020-11-14 12:00:00 20.7 3 Sur 9 Sudeste 0 -- -- 55
2020-11-14 11:00:00 20.6 2 Sudeste 8 Nordeste 0 -- -- 56
2020-11-14 10:00:00 18.7 0 Calma 6 Nordeste 0 -- -- 63
2020-11-14 09:00:00 14.6 3 Norte 7 Norte 0 -- -- 89
2020-11-14 08:00:00 12.5 2 Norte 8 Norte 0 -- -- 90
2020-11-14 07:00:00 13 0 Calma 6 Norte 0 -- -- 90
2020-11-14 06:00:00 13.4 0 Calma 6 Norte 0 -- -- 89
2020-11-14 05:00:00 13.6 4 Norte 8 Norte 0 -- -- 89
2020-11-14 04:00:00 13.1 4 Norte 10 Oeste 0 -- -- 90
2020-11-14 03:00:00 13 4 Norte 9 Norte 0 -- -- 89
2020-11-14 02:00:00 13.3 5 Norte 11 Noroeste 0 -- -- 89
2020-11-14 01:00:00 13.6 4 Norte 10 Norte 0 -- -- 88
2020-11-14 00:00:00 13.6 6 Norte 12 Norte 0 -- -- 88
2020-11-13 23:00:00 13.2 4 Norte 10 Norte 0 -- -- 89
2020-11-13 22:00:00 13.3 5 Norte 11 Norte 0 -- -- 88
2020-11-13 21:00:00 13.8 4 Norte 9 Norte 0 -- -- 87
2020-11-13 20:00:00 14.6 4 Norte 9 Norte 0 -- -- 85
2020-11-13 19:00:00 14.5 3 Norte 6 Norte 0 -- -- 86
2020-11-13 18:00:00 14.8 2 Noroeste 6 Norte 0 -- -- 83
2020-11-13 17:00:00 16.1 0 Calma 7 Sur 0 -- -- 77
2020-11-13 16:00:00 16.9 3 Sur 10 Sur 0 -- -- 65
2020-11-13 15:00:00 18.2 4 Sur 10 Sudoeste 0 -- -- 57
2020-11-13 14:00:00 18 5 Sur 13 Sur 0 -- -- 49
2020-11-13 13:00:00 19 4 Sur 9 Sur 0 -- -- 54
2020-11-13 12:00:00 18.2 3 Sur 6 Sudeste 0 -- -- 55
2020-11-13 11:00:00 18 0 Calma 6 Sudeste 0 -- -- 59
2020-11-13 10:00:00 18.3 0 Calma 11 Sudeste 0 -- -- 59
2020-11-13 09:00:00 13.9 2 Norte 6 Noroeste 0 -- -- 85
2020-11-13 08:00:00 11.1 3 Norte 9 Norte 0 -- -- 89
2020-11-13 07:00:00 11 0 Calma 8 Norte 0 -- -- 89
2020-11-13 06:00:00 11.2 4 Norte 9 Noroeste 0 -- -- 89
2020-11-13 05:00:00 11 4 Norte 9 Norte 0 -- -- 90
2020-11-13 04:00:00 11 5 Norte 9 Norte 0 -- -- 90
2020-11-13 03:00:00 11.1 4 Norte 8 Norte 0 -- -- 90
2020-11-13 02:00:00 11.6 3 Norte 6 Nordeste 0 -- -- 90
2020-11-13 01:00:00 11.7 3 Nordeste 5 Nordeste 0 -- -- 90
2020-11-13 00:00:00 11.8 2 Nordeste 6 Nordeste 0 -- -- 90
2020-11-12 23:00:00 12.1 2 Norte 7 Norte 0 -- -- 90
2020-11-12 22:00:00 12.7 4 Norte 9 Norte 0 -- -- 90
2020-11-12 21:00:00 12.8 4 Norte 8 Norte 0 -- -- 90
2020-11-12 20:00:00 12.7 4 Norte 8 Nordeste 0 -- -- 89
2020-11-12 19:00:00 13 4 Norte 7 Norte 0 -- -- 88
2020-11-12 18:00:00 13.3 0 Calma 4 Norte 0 -- -- 86
2020-11-12 17:00:00 15.1 0 Calma 4 Sudoeste 0 -- -- 75
2020-11-12 16:00:00 16.3 3 Sur 6 Sur 0 -- -- 69
2020-11-12 15:00:00 17 3 Sudeste 7 Sur 0 -- -- 62
2020-11-12 14:00:00 16.7 2 Sudeste 10 Sudeste 0 -- -- 59
2020-11-12 13:00:00 18.2 3 Sudeste 8 Sudeste 0 -- -- 55
2020-11-12 12:00:00 18.5 3 Sudeste 10 Nordeste 0 -- -- 50
2020-11-12 11:00:00 18.3 0 Calma 4 Sudeste 0 -- -- 54
2020-11-12 10:00:00 17.1 0 Calma 13 Norte 0 -- -- 58
2020-11-12 09:00:00 13.1 5 Norte 13 Noroeste 0 -- -- 74
2020-11-12 08:00:00 12.8 3 Oeste 9 Norte 0 -- -- 77
2020-11-12 07:00:00 12.3 3 Oeste 7 Oeste 0 -- -- 83
2020-11-12 06:00:00 10.6 0 Calma 6 Noroeste 0 -- -- 86
2020-11-12 05:00:00 11.7 0 Calma 13 Oeste 0 -- -- 81
2020-11-12 04:00:00 14.4 8 Sudoeste 18 Sudoeste 0 -- -- 71
2020-11-12 03:00:00 14 3 Sudoeste 18 Sudoeste 0 -- -- 76
2020-11-12 02:00:00 14.9 3 Oeste 14 Noroeste 0 -- -- 73
2020-11-12 01:00:00 15 3 Sudoeste 14 Sudoeste 0 -- -- 75
2020-11-12 00:00:00 14.8 5 Oeste 17 Oeste 0 -- -- 76
2020-11-11 23:00:00 14.1 2 Oeste 18 Oeste 0 -- -- 74
2020-11-11 22:00:00 14.8 5 Oeste 14 Noroeste 0 -- -- 67
2020-11-11 21:00:00 13.9 2 Oeste 7 Oeste 0 -- -- 72
2020-11-11 20:00:00 13.8 0 Calma 9 Oeste 0 -- -- 74
2020-11-11 19:00:00 14.5 2 Oeste 13 Sudoeste 0 -- -- 73
2020-11-11 18:00:00 15.9 6 Sudoeste 24 Sudoeste 0 -- -- 68
2020-11-11 17:00:00 16.9 9 Sudoeste 25 Sudoeste 0 -- -- 63
2020-11-11 16:00:00 18 10 Sudoeste 26 Sudoeste 0 -- -- 56
2020-11-11 15:00:00 18.4 10 Sudoeste 29 Sudoeste 0 -- -- 55
2020-11-11 14:00:00 18.6 8 Sur 22 Sudoeste 0 -- -- 52
2020-11-11 13:00:00 20.3 7 Sudoeste 19 Sudoeste 0 -- -- 43
2020-11-11 12:00:00 19.7 7 Sur 16 Sur 0 -- -- 45
2020-11-11 11:00:00 18.9 6 Sur 14 Sur 0 -- -- 46
2020-11-11 10:00:00 19 0 Calma 2 Sudoeste 0 -- -- 51
2020-11-11 09:00:00 15.1 0 Calma 5 Norte 0 -- -- 73
2020-11-11 08:00:00 11.2 2 Norte 9 Norte 0 -- -- 83
2020-11-11 07:00:00 10.6 3 Norte 8 Norte 0 -- -- 87
2020-11-11 06:00:00 10.6 0 Calma 7 Norte 0 -- -- 87
2020-11-11 05:00:00 11 0 Calma 7 Norte 0 -- -- 87
2020-11-11 04:00:00 11.3 0 Calma 7 Norte 0 -- -- 88
2020-11-11 03:00:00 11 0 Calma 8 Norte 0 -- -- 87
2020-11-11 02:00:00 12.3 2 Norte 6 Norte 0 -- -- 87
2020-11-11 01:00:00 11.7 0 Calma 4 Nordeste 0 -- -- 89
2020-11-11 00:00:00 12.2 0 Calma 5 Norte 0 -- -- 88
2020-11-10 23:00:00 13.4 0 Calma 7 Noroeste 0 -- -- 85
2020-11-10 22:00:00 13.1 4 Norte 8 Norte 0 -- -- 87
2020-11-10 21:00:00 13.4 3 Norte 10 Nordeste 0 -- -- 86
2020-11-10 20:00:00 14 4 Norte 8 Norte 0 -- -- 85
2020-11-10 19:00:00 15.2 0 Calma 7 Sudoeste 0 -- -- 80
2020-11-10 18:00:00 15.4 0 Calma 6 Sur 0 -- -- 78
2020-11-10 17:00:00 16.9 0 Calma 5 Sur 0 -- -- 66
2020-11-10 16:00:00 17.8 3 Sudeste 8 Sudeste 0 -- -- 60
2020-11-10 15:00:00 18.8 4 Sudeste 12 Sudeste 0 -- -- 50
2020-11-10 14:00:00 19.4 5 Sur 13 Sur 0 -- -- 46
2020-11-10 13:00:00 20.5 6 Sur 13 Sudoeste 0 -- -- 44
2020-11-10 12:00:00 20.3 4 Sur 12 Sudeste 0 -- -- 45
2020-11-10 11:00:00 20.8 4 Sur 11 Sudeste 0 -- -- 45
2020-11-10 10:00:00 19.9 3 Sudoeste 7 Sudoeste 0 -- -- 48
2020-11-10 09:00:00 16.6 0 Calma 6 Norte 0 -- -- 70
2020-11-10 08:00:00 12.5 2 Norte 7 Norte 0 -- -- 83
2020-11-10 07:00:00 11.6 5 Norte 8 Norte 0 -- -- 84
2020-11-10 06:00:00 11.8 3 Norte 8 Norte 0 -- -- 84
2020-11-10 05:00:00 12.4 4 Noroeste 10 Norte 0 -- -- 84
2020-11-10 04:00:00 11.6 2 Noroeste 8 Norte 0 -- -- 88
2020-11-10 03:00:00 12.3 3 Norte 12 Norte 0 -- -- 85
2020-11-10 02:00:00 13.2 8 Norte 13 Norte 0 -- -- 83
2020-11-10 01:00:00 12.9 5 Norte 14 Norte 0 -- -- 87
2020-11-10 00:00:00 12.7 6 Norte 17 Norte 0 -- -- 85
2020-11-09 23:00:00 12.8 5 Norte 13 Norte 0 -- -- 85
2020-11-09 22:00:00 12.7 5 Norte 11 Norte 0 -- -- 87
2020-11-09 21:00:00 12.7 4 Norte 10 Norte 0 -- -- 87
2020-11-09 20:00:00 13.3 5 Norte 10 Norte 0 -- -- 87
2020-11-09 19:00:00 13.9 4 Norte 8 Norte 0 -- -- 86
2020-11-09 18:00:00 15 0 Calma 9 Sudoeste 0 -- -- 82
2020-11-09 17:00:00 17.3 4 Sur 12 Oeste 0 -- -- 67
2020-11-09 16:00:00 18.5 5 Sur 16 Sudoeste 0 -- -- 57
2020-11-09 15:00:00 18.2 8 Sur 18 Sudoeste 0 -- -- 59
2020-11-09 14:00:00 19 4 Sudoeste 16 Sur 0 -- -- 50
2020-11-09 13:00:00 20.4 6 Sur 16 Sur 0 -- -- 46
2020-11-09 12:00:00 20.6 6 Sur 14 Sur 0 -- -- 51
2020-11-09 11:00:00 19.9 3 Sudoeste 10 Sur 0 -- -- 45
2020-11-09 10:00:00 17.7 3 Sur 9 Sudoeste 0 -- -- 53
2020-11-09 09:00:00 15.3 3 Norte 9 Norte 0 -- -- 65
2020-11-09 08:00:00 11 3 Nordeste 8 Norte 0 -- -- 79
2020-11-09 07:00:00 10.7 6 Norte 10 Norte 0 -- -- 83
2020-11-09 06:00:00 11.1 5 Norte 10 Norte 0 -- -- 83
2020-11-09 05:00:00 11.2 6 Norte 10 Norte 0 -- -- 84
2020-11-09 04:00:00 10.6 3 Norte 6 Norte 0 -- -- 86
2020-11-09 03:00:00 10.8 0 Calma 8 Norte 0 -- -- 85
2020-11-09 02:00:00 10.9 3 Norte 6 Norte 0 -- -- 88
2020-11-09 01:00:00 11.1 0 Calma 6 Nordeste 0 -- -- 89
2020-11-09 00:00:00 11.4 0 Calma 0 Calma 0 -- -- 88
2020-11-08 23:00:00 11.9 0 Calma 8 Sudoeste 0 -- -- 87
2020-11-08 22:00:00 11.8 0 Calma 7 Norte 0 -- -- 87
2020-11-08 21:00:00 12.2 0 Calma 5 Norte 0 -- -- 87
2020-11-08 20:00:00 12.8 3 Norte 5 Norte 0 -- -- 87
2020-11-08 19:00:00 13.8 2 Norte 5 Sudoeste 0 -- -- 85
2020-11-08 18:00:00 15 0 Calma 13 Sudoeste 0 -- -- 82
2020-11-08 17:00:00 17.5 8 Sudoeste 16 Sur 0 -- -- 68
2020-11-08 16:00:00 18.8 4 Sudoeste 18 Sudoeste 0 -- -- 59
2020-11-08 15:00:00 19.2 6 Sudoeste 16 Sur 0 -- -- 57
2020-11-08 14:00:00 19.5 8 Sudoeste 18 Sur 0 -- -- 53
2020-11-08 13:00:00 20.6 5 Sur 15 Sur 0 -- -- 49
2020-11-08 12:00:00 20.8 4 Sur 12 Sur 0 -- -- 50
2020-11-08 11:00:00 20.1 4 Nordeste 9 Nordeste 0 -- -- 54
2020-11-08 10:00:00 18.9 0 Calma 6 Nordeste 0 -- -- 65
2020-11-08 09:00:00 13.6 0 Calma 8 Norte 0 -- -- 90
2020-11-08 08:00:00 11.7 4 Norte 8 Nordeste 0 -- -- 90
2020-11-08 07:00:00 11.1 0 Calma 5 Nordeste 0 -- -- 90
2020-11-08 06:00:00 11.6 0 Calma 9 Sudoeste 0.1 -- -- 89
2020-11-08 05:00:00 12 0 Calma 6 Sudoeste 0 -- -- 89
2020-11-08 04:00:00 12.4 0 Calma 9 Noroeste 0 -- -- 88
2020-11-08 03:00:00 14.2 2 Oeste 12 Sur 0 -- -- 84
2020-11-08 02:00:00 13.7 0 Calma 9 Sudoeste 0 -- -- 90
2020-11-08 01:00:00 12.9 0 Calma 9 Noroeste 0 -- -- 90
2020-11-08 00:00:00 13.5 5 Oeste 10 Sudoeste 0 -- -- 90
2020-11-07 23:00:00 13.8 3 Norte 8 Norte 0 -- -- 90
2020-11-07 22:00:00 14.4 3 Nordeste 8 Norte 0 -- -- 90
2020-11-07 21:00:00 14.6 5 Norte 10 Norte 0 -- -- 90
2020-11-07 20:00:00 14.5 5 Norte 8 Norte 0 -- -- 90
2020-11-07 19:00:00 14.9 3 Norte 8 Norte 0 -- -- 90
2020-11-07 18:00:00 15.7 0 Calma 5 Sudoeste 0 -- -- 89
2020-11-07 17:00:00 17.4 0 Calma 16 Sudoeste 0 -- -- 85
2020-11-07 16:00:00 18.7 3 Sudoeste 11 Sudoeste 0 -- -- 86
2020-11-07 15:00:00 17.4 0 Calma 5 Sudoeste 0 -- -- 90
2020-11-07 14:00:00 17 0 Calma 14 Sudoeste 0.9 -- -- 90
2020-11-07 13:00:00 16.9 2 Oeste 30 Sudoeste 4.3 -- -- 90
2020-11-07 12:00:00 17.9 9 Sur 22 Este 0.2 -- -- 89
2020-11-07 11:00:00 17.7 3 Sudeste 23 Nordeste 0.2 -- -- 90
2020-11-07 10:00:00 17.5 2 Nordeste 19 Sudeste 0.3 -- -- 88
2020-11-07 09:00:00 18.1 0 Calma 21 Nordeste 0 -- -- 83
2020-11-07 08:00:00 17.6 8 Norte 27 Noroeste 0 -- -- 78
2020-11-07 07:00:00 17.6 8 Norte 26 Nordeste 0 -- -- 77
2020-11-07 06:00:00 17.2 7 Nordeste 26 Norte 0 -- -- 77
2020-11-07 05:00:00 17.3 8 Norte 27 Nordeste 0 -- -- 77
2020-11-07 04:00:00 17.3 8 Norte 24 Noroeste 0 -- -- 77
2020-11-07 03:00:00 17.4 7 Nordeste 21 Este 0 -- -- 77
2020-11-07 02:00:00 17.6 8 Norte 20 Norte 0 -- -- 77
2020-11-07 01:00:00 17.3 5 Nordeste 19 Nordeste 0 -- -- 78
2020-11-07 00:00:00 17.6 5 Nordeste 20 Nordeste 0 -- -- 81
2020-11-06 23:00:00 17.6 4 Norte 19 Norte 0 -- -- 81
2020-11-06 22:00:00 17.8 3 Norte 22 Norte 0 -- -- 81
2020-11-06 21:00:00 17.8 4 Nordeste 18 Noroeste 0 -- -- 81
2020-11-06 20:00:00 17.8 2 Norte 12 Nordeste 0 -- -- 81
2020-11-06 19:00:00 18.1 3 Nordeste 17 Norte 0 -- -- 78
2020-11-06 18:00:00 18.1 3 Nordeste 16 Nordeste 0 -- -- 76
2020-11-06 17:00:00 18.1 3 Nordeste 14 Nordeste 0 -- -- 73
2020-11-06 16:00:00 18.4 3 Nordeste 21 Nordeste 0 -- -- 69
2020-11-06 15:00:00 18.9 4 Norte 19 Nordeste 0 -- -- 66
2020-11-06 14:00:00 19.1 4 Norte 21 Norte 0 -- -- 65
2020-11-06 13:00:00 18.9 6 Norte 21 Nordeste 0 -- -- 67
2020-11-06 12:00:00 18 7 Norte 24 Norte 0 -- -- 71
2020-11-06 11:00:00 17.4 7 Norte 21 Norte 0 -- -- 73
2020-11-06 10:00:00 17.2 9 Norte 23 Norte 0 -- -- 73
2020-11-06 09:00:00 16.6 10 Norte 23 Norte 0 -- -- 76
2020-11-06 08:00:00 16 8 Norte 21 Norte 0 -- -- 78
2020-11-06 07:00:00 15.5 10 Norte 25 Norte 0 -- -- 78
2020-11-06 06:00:00 16 9 Norte 22 Nordeste 0 -- -- 74
2020-11-06 05:00:00 16 9 Norte 20 Norte 0 -- -- 75
2020-11-06 04:00:00 15.7 8 Norte 17 Norte 0 -- -- 78
2020-11-06 03:00:00 16.3 10 Norte 22 Norte 0 -- -- 75
2020-11-06 02:00:00 16.2 8 Norte 27 Norte 0 -- -- 75
2020-11-06 01:00:00 16.1 10 Norte 26 Norte 0 -- -- 75
2020-11-06 00:00:00 16.3 11 Norte 23 Norte 0 -- -- 73
2020-11-05 23:00:00 16.3 10 Norte 26 Norte 0 -- -- 73
2020-11-05 22:00:00 16.6 10 Norte 23 Norte 0 -- -- 71
2020-11-05 21:00:00 16.5 9 Norte 24 Norte 0 -- -- 70
2020-11-05 20:00:00 16.6 10 Norte 24 Norte 0 -- -- 68
2020-11-05 19:00:00 16.7 10 Norte 29 Norte 0 -- -- 64
2020-11-05 18:00:00 16.9 8 Norte 20 Norte 0 -- -- 61
2020-11-05 17:00:00 17.1 9 Norte 24 Nordeste 0 -- -- 60
2020-11-05 16:00:00 17.5 4 Nordeste 18 Norte 0 -- -- 56
2020-11-05 15:00:00 17.8 5 Nordeste 20 Nordeste 0 -- -- 53
2020-11-05 14:00:00 18.6 6 Norte 20 Norte 0 -- -- 48
2020-11-05 13:00:00 18.3 3 Nordeste 24 Este 0 -- -- 50
2020-11-05 12:00:00 17.3 5 Nordeste 20 Nordeste 0 -- -- 55
2020-11-05 11:00:00 17.7 8 Norte 26 Norte 0 -- -- 53
2020-11-05 10:00:00 15.6 10 Norte 29 Nordeste 0 -- -- 52
2020-11-05 09:00:00 15.8 9 Norte 24 Norte 0 -- -- 51
2020-11-05 08:00:00 14.8 7 Norte 21 Norte 0 -- -- 51
2020-11-05 07:00:00 14.7 7 Norte 18 Noroeste 0 -- -- 48
2020-11-05 06:00:00 14.9 10 Norte 21 Norte 0 -- -- 44
2020-11-05 05:00:00 14.7 11 Norte 28 Norte 0 -- -- 42
2020-11-05 04:00:00 14.3 10 Norte 27 Norte 0 -- -- 42
2020-11-05 03:00:00 14.3 6 Nordeste 24 Nordeste 0 -- -- 42
2020-11-05 02:00:00 12.5 6 Norte 14 Norte 0 -- -- 48
2020-11-05 01:00:00 11.2 2 Noroeste 9 Sudoeste 0 -- -- 52
2020-11-05 00:00:00 12.9 6 Norte 16 Noroeste 0 -- -- 41
2020-11-04 23:00:00 14.2 10 Norte 25 Norte 0 -- -- 37
2020-11-04 22:00:00 14.6 14 Norte 33 Oeste 0 -- -- 36
2020-11-04 21:00:00 14.3 13 Norte 35 Norte 0 -- -- 35
2020-11-04 20:00:00 13.1 7 Norte 17 Norte 0 -- -- 46
2020-11-04 19:00:00 11.8 4 Norte 10 Norte 0 -- -- 74
2020-11-04 18:00:00 12.7 3 Oeste 7 Oeste 0 -- -- 82
2020-11-04 17:00:00 15 2 Oeste 6 Oeste 0 -- -- 68
2020-11-04 16:00:00 15.7 0 Calma 6 Sur 0 -- -- 58
2020-11-04 15:00:00 16.3 3 Sur 6 Sudoeste 0 -- -- 61
2020-11-04 14:00:00 15.8 3 Sur 5 Sur 0 -- -- 66
2020-11-04 13:00:00 16 0 Calma 5 Este 0 -- -- 65
2020-11-04 12:00:00 15.3 0 Calma 6 Nordeste 0 -- -- 71
2020-11-04 11:00:00 15.1 0 Calma 6 Sur 0 -- -- 76
2020-11-04 10:00:00 14.8 0 Calma 6 Sur 0 -- -- 79
2020-11-04 09:00:00 14.9 3 Sudoeste 8 Oeste 0 -- -- 74
2020-11-04 08:00:00 12.1 4 Norte 8 Norte 0 -- -- 88
2020-11-04 07:00:00 12 0 Calma 8 Norte 0.1 -- -- 89
2020-11-04 06:00:00 12.5 2 Norte 9 Norte 0 -- -- 89
2020-11-04 05:00:00 13 4 Norte 8 Norte 0.2 -- -- 89
2020-11-04 04:00:00 13.2 3 Norte 11 Norte 0.4 -- -- 88
2020-11-04 03:00:00 13.8 3 Norte 6 Noroeste 0 -- -- 88
2020-11-04 02:00:00 13.8 0 Calma 14 Nordeste 0.2 -- -- 85
2020-11-04 01:00:00 15.2 3 Oeste 10 Noroeste 0 -- -- 70
2020-11-04 00:00:00 15.4 2 Este 13 Norte 0 -- -- 70
2020-11-03 23:00:00 15.7 3 Norte 9 Noroeste 0 -- -- 70
2020-11-03 22:00:00 15.7 2 Nordeste 10 Sudoeste 0 -- -- 70
2020-11-03 21:00:00 16 3 Norte 7 Noroeste 0 -- -- 74
2020-11-03 20:00:00 16.3 0 Calma 5 Norte 0 -- -- 74
2020-11-03 19:00:00 16.5 0 Calma 11 Norte 0 -- -- 73
2020-11-03 18:00:00 16.4 0 Calma 5 Sudoeste 0 -- -- 72
2020-11-03 17:00:00 16.4 3 Sur 7 Sur 0 -- -- 70
2020-11-03 16:00:00 17 0 Calma 5 Sur 0 -- -- 68
2020-11-03 15:00:00 17.4 0 Calma 10 Sur 0 -- -- 64
2020-11-03 14:00:00 18.2 2 Este 13 Nordeste 0 -- -- 66
2020-11-03 13:00:00 18.3 2 Sudeste 9 Nordeste 0 -- -- 71
2020-11-03 12:00:00 18.8 0 Calma 7 Sur 0 -- -- 73
2020-11-03 11:00:00 17.9 3 Sur 9 Sudoeste 0 -- -- 78
2020-11-03 10:00:00 17.4 2 Sudoeste 6 Sudoeste 0 -- -- 82
2020-11-03 09:00:00 16.4 3 Sudoeste 6 Sudoeste 0 -- -- 90
2020-11-03 08:00:00 14.2 0 Calma 6 Norte 0 -- -- 90
2020-11-03 07:00:00 13.6 0 Calma 4 Norte 0 -- -- 90
2020-11-03 06:00:00 13.9 0 Calma 4 Sudoeste 0 -- -- 90
2020-11-03 05:00:00 14.7 0 Calma -- -- 0 -- -- 89
2020-11-03 04:00:00 15.4 0 Calma -- -- 0 -- -- 88
2020-11-03 03:00:00 16 0 Calma 3 Nordeste 0 -- -- 87
2020-11-03 02:00:00 16.4 0 Calma -- -- 0 -- -- 86
2020-11-03 01:00:00 16.7 0 Calma 2 Nordeste 0 -- -- 85
2020-11-03 00:00:00 16.9 0 Calma 5 Este 0 -- -- 84
2020-11-02 23:00:00 17.5 0 Calma 4 Norte 0 -- -- 83
2020-11-02 22:00:00 17.8 0 Calma 4 Nordeste 0 -- -- 82
2020-11-02 21:00:00 17.9 2 Sur 8 Sur 0 -- -- 80
2020-11-02 20:00:00 18 0 Calma 9 Sur 0 -- -- 80
2020-11-02 19:00:00 18 3 Sur 11 Sur 0 -- -- 79
2020-11-02 18:00:00 18.1 4 Sudoeste 16 Sudoeste 0 -- -- 79
2020-11-02 17:00:00 18.5 7 Sudoeste 19 Sudoeste 0 -- -- 77
2020-11-02 16:00:00 19.1 7 Sudoeste 22 Sur 0 -- -- 73
2020-11-02 15:00:00 19.4 11 Sudoeste 23 Sudoeste 0 -- -- 71
2020-11-02 14:00:00 20.6 10 Sudoeste 23 Sudoeste 0 -- -- 62
2020-11-02 13:00:00 21.5 9 Sudoeste 24 Sudoeste 0 -- -- 58
2020-11-02 12:00:00 21.1 9 Sudoeste 21 Sudoeste 0 -- -- 56
2020-11-02 11:00:00 21.3 8 Sudoeste 19 Sudoeste 0 -- -- 52
2020-11-02 10:00:00 19.9 7 Sudoeste 14 Sudoeste 0 -- -- 46
2020-11-02 09:00:00 17.8 5 Sudoeste 12 Sudoeste 0 -- -- 58
2020-11-02 08:00:00 12.2 0 Calma 3 Norte 0 -- -- 90
2020-11-02 07:00:00 11.9 0 Calma 4 Sudoeste 0 -- -- 90
2020-11-02 06:00:00 11.7 0 Calma 6 Norte 0 -- -- 90
2020-11-02 05:00:00 12 2 Norte 5 Norte 0 -- -- 90
2020-11-02 04:00:00 12.4 0 Calma 6 Norte 0 -- -- 90
2020-11-02 03:00:00 12.5 3 Norte 6 Nordeste 0 -- -- 90
2020-11-02 02:00:00 13.2 0 Calma 6 Norte 0 -- -- 90
2020-11-02 01:00:00 13.6 3 Norte 6 Norte 0 -- -- 90
2020-11-02 00:00:00 14.2 4 Norte 8 Norte 0 -- -- 90
2020-11-01 23:00:00 15.5 4 Norte 8 Norte 0 -- -- 89
2020-11-01 22:00:00 14.9 3 Norte 7 Norte 0 -- -- 89
2020-11-01 21:00:00 14.6 5 Norte 10 Norte 0 -- -- 89
2020-11-01 20:00:00 15.2 5 Norte 9 Norte 0 -- -- 89
2020-11-01 19:00:00 15.8 5 Norte 8 Noroeste 0 -- -- 89
2020-11-01 18:00:00 16.3 0 Calma 5 Sur 0 -- -- 87
2020-11-01 17:00:00 18.3 2 Sur 8 Sur 0 -- -- 79
2020-11-01 16:00:00 19.3 3 Sur 12 Sudoeste 0 -- -- 73
2020-11-01 15:00:00 19.5 6 Sur 14 Sudoeste 0 -- -- 70
2020-11-01 14:00:00 20.8 7 Sur 17 Sudoeste 0 -- -- 59
2020-11-01 13:00:00 21.1 5 Sur 13 Sur 0 -- -- 58
2020-11-01 12:00:00 20.3 2 Sur 10 Sur 0 -- -- 47
2020-11-01 11:00:00 20.9 2 Sudeste 9 Sudeste 0 -- -- 45
2020-11-01 10:00:00 19 0 Calma 5 Nordeste 0 -- -- 52
2020-11-01 09:00:00 15.2 0 Calma 6 Norte 0 -- -- 88
2020-11-01 08:00:00 12.3 4 Norte 8 Norte 0 -- -- 91
2020-11-01 07:00:00 12.1 5 Norte 10 Nordeste 0 -- -- 91
2020-11-01 06:00:00 12.5 0 Calma 7 Norte 0 -- -- 90
2020-11-01 05:00:00 13.6 2 Nordeste 7 Nordeste 0 -- -- 89
2020-11-01 04:00:00 13.4 0 Calma 7 Norte 0 -- -- 91
2020-11-01 03:00:00 14.1 4 Norte 9 Norte 0 -- -- 90
2020-11-01 02:00:00 14.8 3 Oeste 9 Norte 0 -- -- 89
2020-11-01 01:00:00 16.6 4 Norte 9 Noroeste 0 -- -- 86
2020-11-01 00:00:00 17 0 Calma 7 Sudoeste 0 -- -- 85
2020-10-31 23:00:00 16.5 0 Calma 5 Norte 0 -- -- 86
2020-10-31 22:00:00 16.9 2 Norte 11 Sudoeste 0 -- -- 86
2020-10-31 21:00:00 16.5 4 Norte 10 Norte 0 -- -- 87
2020-10-31 20:00:00 15.6 3 Norte 10 Norte 0 -- -- 87
2020-10-31 19:00:00 15.5 4 Noroeste 8 Norte 0 -- -- 88
2020-10-31 18:00:00 16.4 0 Calma 13 Sudoeste 0 -- -- 85
2020-10-31 17:00:00 18.3 6 Sudoeste 20 Sudoeste 0 -- -- 74
2020-10-31 16:00:00 19.3 9 Sudoeste 33 Sudoeste 0 -- -- 72
2020-10-31 15:00:00 20 11 Sudoeste 27 Sudoeste 0 -- -- 59
2020-10-31 14:00:00 20.6 9 Sudoeste 24 Sudoeste 0 -- -- 57
2020-10-31 13:00:00 21 11 Sudoeste 22 Sudoeste 0 -- -- 55
2020-10-31 12:00:00 21.1 5 Sudoeste 13 Oeste 0 -- -- 42
2020-10-31 11:00:00 20.9 5 Sur 10 Sur 0 -- -- 44
2020-10-31 10:00:00 19.5 0 Calma 4 Sudeste 0 -- -- 54
2020-10-31 09:00:00 15.1 0 Calma 8 Norte 0 -- -- 84
2020-10-31 08:00:00 11 5 Norte 9 Norte 0 -- -- 90
2020-10-31 07:00:00 11.4 5 Norte 8 Norte 0 -- -- 91
2020-10-31 06:00:00 11.3 3 Norte 10 Norte 0 -- -- 89
2020-10-31 05:00:00 11.8 6 Norte 10 Norte 0 -- -- 87
2020-10-31 04:00:00 11.6 4 Norte 8 Norte 0 -- -- 88
2020-10-31 03:00:00 12.1 5 Norte 9 Norte 0 -- -- 90
2020-10-31 02:00:00 11.7 4 Norte 8 Norte 0 -- -- 91
2020-10-31 01:00:00 12 3 Norte 10 Norte 0 -- -- 90
2020-10-31 00:00:00 12.5 3 Norte 7 Norte 0 -- -- 90
2020-10-30 23:00:00 12.9 3 Norte 9 Norte 0 -- -- 88
2020-10-30 22:00:00 12.9 4 Norte 9 Norte 0 -- -- 88
2020-10-30 21:00:00 13.5 5 Norte 9 Norte 0 -- -- 87
2020-10-30 20:00:00 13.8 4 Norte 9 Norte 0 -- -- 87
2020-10-30 19:00:00 14.4 4 Norte 8 Norte 0 -- -- 84
2020-10-30 18:00:00 15.3 0 Calma 7 Sudoeste 0 -- -- 78
2020-10-30 17:00:00 18.4 4 Sudoeste 12 Sudoeste 0 -- -- 59
2020-10-30 16:00:00 19.2 4 Sur 12 Sur 0 -- -- 53
2020-10-30 15:00:00 19.3 4 Sur 12 Sudoeste 0 -- -- 54
2020-10-30 14:00:00 20.1 4 Sur 12 Nordeste 0 -- -- 49
2020-10-30 13:00:00 20.2 2 Sudeste 11 Sudeste 0 -- -- 48
2020-10-30 12:00:00 21.3 3 Sur 10 Nordeste 0 -- -- 46
2020-10-30 11:00:00 21 3 Sudeste 8 Nordeste 0 -- -- 48
2020-10-30 10:00:00 20.1 0 Calma 3 Nordeste 0 -- -- 51
2020-10-30 09:00:00 16.7 0 Calma 6 Norte 0 -- -- 70
2020-10-30 08:00:00 11.7 0 Calma 11 Norte 0 -- -- 83
2020-10-30 07:00:00 11 2 Noroeste 9 Nordeste 0 -- -- 85
2020-10-30 06:00:00 11.5 0 Calma 10 Norte 0 -- -- 84
2020-10-30 05:00:00 11.5 3 Norte 6 Norte 0 -- -- 88
2020-10-30 04:00:00 11.4 0 Calma 6 Nordeste 0 -- -- 86
2020-10-30 03:00:00 12.6 3 Norte 9 Norte 0 -- -- 81
2020-10-30 02:00:00 12 3 Norte 8 Norte 0 -- -- 87
2020-10-30 01:00:00 13.1 3 Norte 12 Norte 0 -- -- 85
2020-10-30 00:00:00 13.5 3 Norte 12 Norte 0 -- -- 89
2020-10-29 23:00:00 14.3 5 Norte 12 Norte 0 -- -- 87
2020-10-29 22:00:00 13.8 3 Norte 9 Norte 0 -- -- 87
2020-10-29 21:00:00 14.4 6 Norte 13 Norte 0 -- -- 87
2020-10-29 20:00:00 14.4 5 Norte 10 Norte 0 -- -- 88
2020-10-29 19:00:00 15.1 4 Norte 8 Norte 0 -- -- 88
2020-10-29 18:00:00 16.5 0 Calma 11 Sudoeste 0 -- -- 84
2020-10-29 17:00:00 18.3 5 Sudoeste 18 Sudoeste 0 -- -- 74
2020-10-29 16:00:00 19.1 8 Sudoeste 19 Sur 0 -- -- 73
2020-10-29 15:00:00 19.6 7 Sur 20 Sudeste 0 -- -- 68
2020-10-29 14:00:00 19.8 8 Sur 18 Sur 0 -- -- 61
2020-10-29 13:00:00 19.3 4 Sudoeste 18 Sudoeste 0 -- -- 67
2020-10-29 12:00:00 19.9 5 Sudoeste 12 Sudoeste 0 -- -- 64
2020-10-29 11:00:00 17.4 0 Calma 6 Norte 0 -- -- 74
2020-10-29 10:00:00 17.4 0 Calma 5 Sudeste 0 -- -- 77
2020-10-29 09:00:00 15.5 0 Calma 6 Norte 0 -- -- 83
2020-10-29 08:00:00 14.7 0 Calma 6 Norte 0 -- -- 85
2020-10-29 07:00:00 14.4 3 Norte 8 Norte 0 -- -- 84
2020-10-29 06:00:00 14.2 3 Norte 11 Norte 0 -- -- 85
2020-10-29 05:00:00 13 5 Norte 10 Norte 0 -- -- 88
2020-10-29 04:00:00 12.2 5 Norte 9 Norte 0 -- -- 87
2020-10-29 03:00:00 12.3 6 Norte 10 Norte 0 -- -- 87
2020-10-29 02:00:00 12 4 Norte 6 Norte 0 -- -- 86
2020-10-29 01:00:00 12.6 3 Norte 14 Norte 0 -- -- 83
2020-10-29 00:00:00 12.2 4 Norte 11 Norte 0 -- -- 87
2020-10-28 23:00:00 13 3 Norte 9 Noroeste 0 -- -- 84
2020-10-28 22:00:00 13.3 2 Noroeste 10 Norte 0 -- -- 80
2020-10-28 21:00:00 13.7 5 Norte 13 Oeste 0 -- -- 74
2020-10-28 20:00:00 13.7 4 Norte 12 Norte 0 -- -- 76
2020-10-28 19:00:00 13.7 5 Norte 11 Norte 0 -- -- 77
2020-10-28 18:00:00 15 6 Norte 12 Norte 0 -- -- 74
2020-10-28 17:00:00 17.6 0 Calma 9 Sudoeste 0 -- -- 62
2020-10-28 16:00:00 18.6 3 Sudoeste 9 Sur 0 -- -- 55
2020-10-28 15:00:00 18.9 5 Sudoeste 10 Sudoeste 0 -- -- 41
2020-10-28 14:00:00 19.7 2 Este 9 Sur 0 -- -- 38
2020-10-28 13:00:00 20.2 2 Este 12 Sudeste 0 -- -- 40
2020-10-28 12:00:00 20.2 3 Sudeste 10 Nordeste 0 -- -- 41
2020-10-28 11:00:00 19.9 2 Este 10 Sudeste 0 -- -- 40
2020-10-28 10:00:00 19.4 0 Calma 5 Sur 0 -- -- 40
2020-10-28 09:00:00 16.1 2 Nordeste 12 Norte 0 -- -- 54
2020-10-28 08:00:00 11.8 6 Norte 11 Norte 0 -- -- 65
2020-10-28 07:00:00 11.4 3 Noroeste 13 Norte 0 -- -- 65
2020-10-28 06:00:00 12.1 5 Norte 10 Norte 0 -- -- 63
2020-10-28 05:00:00 11.7 4 Norte 16 Norte 0 -- -- 64
2020-10-28 04:00:00 11.5 8 Norte 15 Norte 0 -- -- 64
2020-10-28 03:00:00 11.3 5 Norte 12 Norte 0 -- -- 69
2020-10-28 02:00:00 11.1 6 Norte 10 Norte 0 -- -- 69
2020-10-28 01:00:00 11.1 3 Noroeste 10 Sudoeste 0 -- -- 67
2020-10-28 00:00:00 12.7 4 Sudoeste 13 Sudoeste 0 -- -- 55